createdAt,value
2022-10-31T00:00:50.357Z,7.50
2022-10-31T00:03:18.017Z,6.63
2022-10-31T00:05:46.922Z,6.47
2022-10-31T00:08:13.807Z,6.13
2022-10-31T00:10:41.291Z,6.45
2022-10-31T00:13:08.427Z,7.30
2022-10-31T00:15:35.634Z,5.90
2022-10-31T00:18:04.910Z,5.50
2022-10-31T00:20:32.236Z,6.10
2022-10-31T00:22:59.695Z,5.43
2022-10-31T00:25:28.375Z,5.88
2022-10-31T00:27:55.461Z,5.90
2022-10-31T00:30:22.412Z,5.43
2022-10-31T00:32:49.182Z,5.72
2022-10-31T00:35:17.407Z,5.03
2022-10-31T00:40:13.494Z,5.25
2022-10-31T00:42:40.525Z,6.25
2022-10-31T00:45:08.305Z,6.07
2022-10-31T00:47:35.043Z,6.00
2022-10-31T00:50:02.308Z,5.63
2022-10-31T00:52:31.242Z,5.20
2022-10-31T00:54:58.074Z,4.90
2022-10-31T00:57:24.918Z,5.05
2022-10-31T00:59:51.928Z,5.07
2022-10-31T01:02:18.956Z,5.80
2022-10-31T01:04:45.765Z,5.93
2022-10-31T01:07:15.113Z,5.60
2022-10-31T01:09:43.348Z,6.10
2022-10-31T01:12:10.429Z,5.35
2022-10-31T01:14:39.934Z,6.80
2022-10-31T01:17:06.688Z,5.20
2022-10-31T01:19:33.696Z,5.82
2022-10-31T01:22:00.502Z,5.22
2022-10-31T01:24:29.988Z,5.70
2022-10-31T01:26:58.196Z,6.28
2022-10-31T01:29:24.981Z,5.70
2022-10-31T01:31:51.703Z,5.47
2022-10-31T01:34:18.814Z,5.50
2022-10-31T01:36:47.916Z,5.53
2022-10-31T01:39:16.055Z,5.07
2022-10-31T01:41:44.979Z,5.13
2022-10-31T01:44:48.334Z,5.60
2022-10-31T01:47:19.977Z,5.85
2022-10-31T01:49:49.982Z,6.28
2022-10-31T01:52:24.558Z,5.90
2022-10-31T01:54:54.687Z,7.15
2022-10-31T01:57:22.395Z,5.60
2022-10-31T01:59:56.875Z,6.47
2022-10-31T02:02:26.749Z,6.63
2022-10-31T02:04:54.927Z,6.07
2022-10-31T02:07:27.786Z,6.15
2022-10-31T02:10:00.841Z,5.97
2022-10-31T02:12:28.587Z,6.03
2022-10-31T02:15:00.565Z,6.03
2022-10-31T02:17:30.884Z,5.80
2022-10-31T02:20:08.314Z,5.90
2022-10-31T02:22:49.203Z,6.30
2022-10-31T02:25:30.410Z,5.82
2022-10-31T02:28:21.829Z,6.65
2022-10-31T02:31:04.851Z,6.38
2022-10-31T02:33:40.201Z,7.20
2022-10-31T02:36:13.082Z,6.90
2022-10-31T02:38:51.835Z,7.18
2022-10-31T02:41:38.709Z,7.18
2022-10-31T02:44:19.633Z,8.35
2022-10-31T02:46:51.125Z,7.90
2022-10-31T02:49:25.658Z,7.97
2022-10-31T02:51:52.958Z,8.43
2022-10-31T02:54:23.496Z,8.95
2022-10-31T02:56:58.061Z,8.20
2022-10-31T02:59:25.324Z,8.32
2022-10-31T03:02:10.231Z,8.75
2022-10-31T03:04:59.164Z,9.15
2022-10-31T03:07:36.466Z,9.02
2022-10-31T03:10:11.336Z,8.32
2022-10-31T03:12:48.975Z,8.75
2022-10-31T03:15:22.439Z,8.07
2022-10-31T03:17:57.685Z,7.75
2022-10-31T03:20:30.812Z,8.48
2022-10-31T03:23:00.759Z,8.65
2022-10-31T03:25:28.249Z,8.77
2022-10-31T03:30:25.183Z,7.15
2022-10-31T03:33:03.545Z,8.07
2022-10-31T03:35:34.268Z,7.80
2022-10-31T03:38:06.959Z,9.02
2022-10-31T03:40:38.899Z,7.90
2022-10-31T03:43:11.737Z,8.40
2022-10-31T03:45:44.253Z,8.10
2022-10-31T03:48:14.469Z,8.07
2022-10-31T03:50:49.575Z,6.55
2022-10-31T03:53:24.048Z,8.00
2022-10-31T03:55:56.253Z,7.78
2022-10-31T03:58:28.514Z,8.05
2022-10-31T04:00:58.580Z,8.00
2022-10-31T04:03:29.687Z,7.72
2022-10-31T04:06:02.898Z,8.55
2022-10-31T04:08:34.017Z,7.60
2022-10-31T04:11:03.922Z,7.50
2022-10-31T04:13:34.851Z,8.93
2022-10-31T04:16:12.646Z,7.78
2022-10-31T04:18:44.611Z,7.45
2022-10-31T04:21:11.428Z,7.43
2022-10-31T04:23:38.463Z,7.57
2022-10-31T04:26:15.577Z,8.05
2022-10-31T04:28:44.415Z,7.55
2022-10-31T04:31:13.162Z,8.30
2022-10-31T04:33:40.747Z,7.78
2022-10-31T04:36:09.919Z,8.65
2022-10-31T04:38:37.952Z,10.65
2022-10-31T04:41:13.083Z,11.63
2022-10-31T04:43:53.176Z,11.90
2022-10-31T04:46:20.042Z,12.05
2022-10-31T04:48:47.604Z,13.38
2022-10-31T04:51:15.981Z,13.40
2022-10-31T04:53:42.853Z,12.05
2022-10-31T04:56:32.468Z,11.38
2022-10-31T04:59:02.032Z,12.25
2022-10-31T05:01:36.367Z,9.98
2022-10-31T05:04:04.361Z,9.65
2022-10-31T05:06:34.309Z,11.30
2022-10-31T05:09:01.181Z,11.25
2022-10-31T05:11:28.837Z,13.32
2022-10-31T05:14:01.942Z,13.45
2022-10-31T05:16:57.730Z,13.77
2022-10-31T05:19:43.189Z,14.85
2022-10-31T05:22:44.647Z,13.68
2022-10-31T05:25:12.233Z,15.23
2022-10-31T05:27:40.724Z,13.15
2022-10-31T05:30:08.294Z,13.70
2022-10-31T05:32:38.545Z,13.00
2022-10-31T05:35:26.430Z,12.45
2022-10-31T05:38:27.884Z,14.07
2022-10-31T05:41:02.278Z,15.02
2022-10-31T05:43:31.794Z,15.90
2022-10-31T05:45:58.649Z,15.32
2022-10-31T05:48:44.508Z,14.93
2022-10-31T05:51:43.462Z,13.98
2022-10-31T05:54:15.667Z,14.23
2022-10-31T05:56:44.676Z,15.73
2022-10-31T05:59:11.433Z,13.15
2022-10-31T06:01:39.581Z,12.52
2022-10-31T06:04:14.563Z,12.63
2022-10-31T06:06:42.783Z,13.15
2022-10-31T06:09:11.496Z,13.38
2022-10-31T06:11:38.504Z,14.50
2022-10-31T06:14:05.989Z,16.00
2022-10-31T06:16:53.270Z,15.75
2022-10-31T06:22:17.624Z,14.82
2022-10-31T06:24:46.149Z,16.02
2022-10-31T06:27:28.435Z,15.10
2022-10-31T06:30:02.883Z,16.05
2022-10-31T06:32:32.166Z,15.93
2022-10-31T06:35:01.610Z,16.42
2022-10-31T06:37:29.295Z,13.98
2022-10-31T06:40:05.094Z,12.98
2022-10-31T06:42:41.531Z,14.27
2022-10-31T06:45:10.459Z,15.55
2022-10-31T06:48:16.113Z,14.82
2022-10-31T06:51:04.064Z,15.52
2022-10-31T06:53:32.215Z,16.55
2022-10-31T06:56:01.754Z,16.33
2022-10-31T06:58:31.028Z,15.73
2022-10-31T07:01:18.557Z,16.63
2022-10-31T07:03:49.032Z,14.65
2022-10-31T07:06:16.134Z,15.32
2022-10-31T07:08:43.200Z,14.43
2022-10-31T07:11:16.997Z,15.32
2022-10-31T07:13:44.001Z,16.23
2022-10-31T07:16:32.676Z,17.58
2022-10-31T07:19:00.308Z,17.23
2022-10-31T07:21:58.727Z,19.30
2022-10-31T07:24:28.765Z,19.42
2022-10-31T07:27:41.666Z,19.85
2022-10-31T07:30:12.674Z,20.60
2022-10-31T07:33:04.210Z,20.13
2022-10-31T07:36:13.583Z,18.42
2022-10-31T07:38:55.512Z,19.85
2022-10-31T07:41:24.319Z,18.40
2022-10-31T07:46:39.632Z,22.50
2022-10-31T07:49:36.281Z,22.02
2022-10-31T07:52:21.751Z,23.40
2022-10-31T07:55:00.738Z,24.42
2022-10-31T07:57:34.625Z,25.55
2022-10-31T08:00:06.146Z,24.45
2022-10-31T08:02:42.190Z,25.30
2022-10-31T08:05:27.986Z,26.67
2022-10-31T08:08:32.311Z,25.50
2022-10-31T08:11:04.455Z,25.75
2022-10-31T08:13:31.608Z,24.30
2022-10-31T08:16:38.963Z,25.38
2022-10-31T08:19:07.487Z,26.00
2022-10-31T08:21:38.569Z,26.02
2022-10-31T08:24:07.179Z,28.50
2022-10-31T08:27:08.152Z,27.88
2022-10-31T08:29:40.723Z,25.13
2022-10-31T08:32:10.924Z,23.17
2022-10-31T08:34:56.248Z,22.73
2022-10-31T08:37:59.225Z,22.00
2022-10-31T08:40:28.745Z,22.35
2022-10-31T08:42:59.985Z,23.27
2022-10-31T08:45:27.115Z,23.08
2022-10-31T08:47:58.295Z,20.50
2022-10-31T08:50:25.969Z,18.75
2022-10-31T08:53:04.838Z,20.45
2022-10-31T08:55:34.311Z,18.52
2022-10-31T08:58:22.618Z,18.30
2022-10-31T09:00:57.305Z,17.98
2022-10-31T09:03:28.828Z,14.90
2022-10-31T09:05:57.172Z,15.50
2022-10-31T09:08:24.395Z,15.43
2022-10-31T09:10:52.098Z,16.35
2022-10-31T09:13:32.101Z,14.57
2022-10-31T09:16:19.129Z,16.15
2022-10-31T09:18:47.493Z,14.10
2022-10-31T09:21:16.956Z,13.93
2022-10-31T09:23:44.178Z,13.98
2022-10-31T09:26:11.083Z,13.43
2022-10-31T09:28:41.461Z,10.90
2022-10-31T09:31:10.488Z,11.23
2022-10-31T09:33:55.997Z,11.38
2022-10-31T09:36:44.294Z,11.70
2022-10-31T09:39:19.323Z,12.38
2022-10-31T09:42:08.671Z,10.95
2022-10-31T09:44:45.428Z,11.82
2022-10-31T09:47:34.409Z,10.80
2022-10-31T09:50:24.359Z,10.05
2022-10-31T09:52:58.557Z,10.30
2022-10-31T09:55:33.137Z,9.35
2022-10-31T09:58:01.272Z,10.82
2022-10-31T10:00:28.269Z,10.07
2022-10-31T10:03:01.203Z,10.93
2022-10-31T10:05:37.997Z,10.45
2022-10-31T10:08:13.155Z,10.48
2022-10-31T10:11:20.298Z,10.48
2022-10-31T10:14:10.687Z,8.77
2022-10-31T10:16:56.825Z,9.85
2022-10-31T10:19:41.394Z,9.20
2022-10-31T10:22:15.971Z,9.57
2022-10-31T10:24:56.836Z,9.70
2022-10-31T10:27:34.568Z,8.38
2022-10-31T10:30:07.584Z,8.75
2022-10-31T10:32:46.603Z,9.52
2022-10-31T10:35:23.428Z,7.82
2022-10-31T10:37:57.222Z,8.10
2022-10-31T10:40:27.038Z,6.60
2022-10-31T10:43:21.509Z,7.22
2022-10-31T10:46:12.038Z,7.68
2022-10-31T10:48:46.374Z,7.20
2022-10-31T10:51:38.844Z,6.72
2022-10-31T10:54:26.165Z,6.80
2022-10-31T10:57:05.080Z,7.38
2022-10-31T10:59:32.703Z,7.97
2022-10-31T11:02:01.027Z,8.48
2022-10-31T11:04:33.458Z,8.45
2022-10-31T11:07:02.669Z,9.93
2022-10-31T11:09:31.606Z,10.80
2022-10-31T11:11:59.217Z,12.02
2022-10-31T11:14:27.492Z,10.00
2022-10-31T11:17:07.676Z,9.85
2022-10-31T11:19:34.485Z,10.07
2022-10-31T11:22:07.646Z,10.38
2022-10-31T11:24:41.536Z,9.38
2022-10-31T11:27:16.399Z,8.68
2022-10-31T11:29:43.428Z,8.90
2022-10-31T11:32:21.299Z,8.57
2022-10-31T11:34:51.425Z,8.80
2022-10-31T11:37:21.485Z,8.25
2022-10-31T11:39:54.534Z,8.00
2022-10-31T11:42:24.290Z,7.97
2022-10-31T11:44:52.792Z,7.78
2022-10-31T11:47:26.309Z,7.80
2022-10-31T11:49:53.696Z,7.13
2022-10-31T11:52:24.061Z,6.25
2022-10-31T11:54:56.605Z,6.57
2022-10-31T11:57:25.989Z,8.07
2022-10-31T12:02:21.925Z,7.05
2022-10-31T12:04:55.773Z,6.38
2022-10-31T12:07:23.641Z,5.55
2022-10-31T12:09:51.742Z,6.60
2022-10-31T12:12:44.345Z,6.53
2022-10-31T12:15:33.085Z,7.97
2022-10-31T12:18:18.774Z,6.97
2022-10-31T12:20:56.307Z,6.78
2022-10-31T12:23:32.818Z,6.07
2022-10-31T12:26:12.672Z,6.88
2022-10-31T12:29:00.618Z,7.40
2022-10-31T12:31:39.075Z,13.10
2022-10-31T12:34:31.706Z,7.20
2022-10-31T12:37:11.337Z,6.75
2022-10-31T12:39:47.638Z,7.45
2022-10-31T12:42:25.462Z,7.63
2022-10-31T12:45:36.648Z,7.75
2022-10-31T12:48:24.006Z,6.53
2022-10-31T12:50:59.108Z,6.55
2022-10-31T12:53:43.056Z,6.82
2022-10-31T12:56:22.727Z,7.10
2022-10-31T12:58:57.047Z,7.07
2022-10-31T13:01:28.247Z,6.45
2022-10-31T13:04:00.611Z,7.50
2022-10-31T13:06:33.322Z,7.22
2022-10-31T13:09:03.273Z,9.10
2022-10-31T13:11:36.451Z,6.25
2022-10-31T13:14:10.593Z,7.22
2022-10-31T13:16:41.602Z,10.90
2022-10-31T13:19:14.691Z,6.70
2022-10-31T13:21:50.588Z,6.80
2022-10-31T13:24:22.214Z,6.50
2022-10-31T13:26:53.012Z,10.23
2022-10-31T13:29:31.430Z,6.95
2022-10-31T13:32:01.875Z,7.90
2022-10-31T13:34:33.190Z,7.75
2022-10-31T13:37:07.909Z,7.18
2022-10-31T13:39:47.715Z,8.23
2022-10-31T13:42:21.592Z,7.50
2022-10-31T13:44:49.819Z,8.25
2022-10-31T13:47:27.233Z,7.38
2022-10-31T13:50:06.443Z,7.97
2022-10-31T13:52:45.408Z,25.00
2022-10-31T13:55:36.262Z,9.82
2022-10-31T13:58:20.927Z,9.57
2022-10-31T14:01:00.337Z,9.10
2022-10-31T14:03:57.403Z,8.02
2022-10-31T14:06:17.050Z,36.38
2022-10-31T14:08:51.781Z,12.45
2022-10-31T14:11:25.908Z,10.82
2022-10-31T14:13:52.871Z,10.10
2022-10-31T14:16:25.046Z,8.90
2022-10-31T14:19:00.193Z,10.15
2022-10-31T14:21:30.389Z,9.48
2022-10-31T14:23:58.119Z,10.38
2022-10-31T14:26:37.206Z,8.90
2022-10-31T14:29:23.536Z,10.18
2022-10-31T14:31:56.399Z,9.52
2022-10-31T14:34:25.705Z,10.40
2022-10-31T14:37:03.727Z,10.82
2022-10-31T14:39:35.917Z,11.63
2022-10-31T14:42:19.877Z,10.15
2022-10-31T14:45:00.759Z,10.52
2022-10-31T14:47:37.860Z,10.50
2022-10-31T14:50:23.168Z,11.82
2022-10-31T14:52:53.373Z,11.38
2022-10-31T14:55:21.826Z,10.15
2022-10-31T14:57:52.157Z,11.30
2022-10-31T15:00:22.049Z,10.45
2022-10-31T15:03:03.465Z,11.55
2022-10-31T15:05:32.776Z,11.35
2022-10-31T15:08:00.150Z,11.70
2022-10-31T15:10:30.755Z,10.68
2022-10-31T15:13:09.862Z,10.95
2022-10-31T15:15:37.923Z,10.50
2022-10-31T15:18:06.843Z,10.30
2022-10-31T15:20:40.238Z,11.48
2022-10-31T15:23:10.875Z,10.52
2022-10-31T15:25:37.968Z,10.68
2022-10-31T15:28:14.425Z,10.38
2022-10-31T15:30:41.230Z,11.80
2022-10-31T15:33:21.784Z,10.82
2022-10-31T15:35:57.027Z,11.27
2022-10-31T15:38:25.265Z,11.27
2022-10-31T15:40:55.792Z,11.18
2022-10-31T15:43:23.061Z,10.57
2022-10-31T15:45:50.310Z,12.05
2022-10-31T15:48:20.260Z,10.43
2022-10-31T15:50:50.126Z,10.93
2022-10-31T15:53:20.534Z,10.77
2022-10-31T15:55:50.344Z,10.18
2022-10-31T15:58:18.578Z,10.82
2022-10-31T16:00:45.611Z,10.07
2022-10-31T16:03:25.836Z,13.02
2022-10-31T16:05:55.002Z,11.00
2022-10-31T16:08:27.455Z,10.43
2022-10-31T16:10:55.020Z,11.40
2022-10-31T16:13:26.954Z,11.30
2022-10-31T16:16:21.298Z,11.35
2022-10-31T16:18:46.186Z,11.07
2022-10-31T16:21:13.489Z,11.40
2022-10-31T16:23:46.909Z,11.25
2022-10-31T16:26:18.108Z,11.10
2022-10-31T16:28:53.396Z,11.75
2022-10-31T16:31:29.306Z,11.18
2022-10-31T16:34:15.729Z,11.05
2022-10-31T16:36:42.970Z,12.85
2022-10-31T16:39:10.648Z,11.18
2022-10-31T16:41:41.340Z,10.60
2022-10-31T16:44:17.764Z,10.98
2022-10-31T16:46:44.756Z,10.73
2022-10-31T16:49:12.985Z,13.82
2022-10-31T16:51:39.772Z,12.82
2022-10-31T16:54:06.760Z,12.88
2022-10-31T16:56:35.365Z,11.45
2022-10-31T16:59:05.520Z,12.80
2022-10-31T17:01:32.783Z,12.52
2022-10-31T17:03:59.930Z,10.90
2022-10-31T17:06:28.603Z,13.75
2022-10-31T17:08:55.663Z,14.55
2022-10-31T17:11:25.552Z,13.63
2022-10-31T17:13:53.808Z,13.45
2022-10-31T17:16:20.785Z,12.60
2022-10-31T17:18:47.667Z,13.00
2022-10-31T17:21:19.763Z,11.95
2022-10-31T17:23:47.899Z,13.02
2022-10-31T17:26:18.701Z,13.68
2022-10-31T17:28:45.841Z,12.10
2022-10-31T17:31:21.590Z,12.25
2022-10-31T17:33:48.606Z,12.23
2022-10-31T17:36:15.503Z,12.77
2022-10-31T17:38:42.433Z,11.27
2022-10-31T17:41:13.032Z,14.45
2022-10-31T17:43:40.130Z,14.13
2022-10-31T17:46:07.809Z,12.00
2022-10-31T17:48:35.742Z,13.60
2022-10-31T17:51:03.616Z,13.60
2022-10-31T17:53:31.070Z,13.20
2022-10-31T17:56:02.131Z,13.73
2022-10-31T17:58:30.527Z,13.27
2022-10-31T18:00:58.106Z,14.13
2022-10-31T18:03:25.139Z,12.98
2022-10-31T18:05:53.843Z,14.70
2022-10-31T18:08:24.215Z,13.85
2022-10-31T18:10:51.260Z,13.88
2022-10-31T18:13:18.154Z,13.02
2022-10-31T18:15:46.682Z,13.68
2022-10-31T18:18:13.466Z,14.45
2022-10-31T18:20:40.928Z,14.45
2022-10-31T18:23:07.823Z,14.40
2022-10-31T18:25:35.249Z,14.15
2022-10-31T18:28:02.896Z,14.77
2022-10-31T18:30:29.918Z,15.18
2022-10-31T18:32:58.146Z,14.93
2022-10-31T18:35:24.921Z,14.90
2022-10-31T18:37:52.293Z,14.95
2022-10-31T18:40:19.168Z,13.82
2022-10-31T18:42:46.119Z,16.00
2022-10-31T18:45:31.361Z,13.40
2022-10-31T18:48:01.605Z,14.57
2022-10-31T18:50:28.782Z,16.50
2022-10-31T18:52:55.648Z,15.40
2022-10-31T18:55:22.678Z,14.90
2022-10-31T18:57:49.482Z,14.05
2022-10-31T19:00:18.817Z,19.38
2022-10-31T19:02:45.846Z,17.05
2022-10-31T19:05:14.087Z,15.68
2022-10-31T19:07:40.977Z,15.60
2022-10-31T19:10:08.316Z,16.38
2022-10-31T19:12:35.179Z,17.20
2022-10-31T19:15:02.068Z,16.73
2022-10-31T19:17:28.799Z,16.08
2022-10-31T19:19:55.621Z,15.77
2022-10-31T19:22:23.759Z,18.73
2022-10-31T19:24:50.668Z,17.70
2022-10-31T19:27:17.728Z,18.98
2022-10-31T19:29:44.610Z,18.38
2022-10-31T19:32:11.320Z,19.52
2022-10-31T19:34:38.090Z,21.88
2022-10-31T19:37:04.909Z,17.48
2022-10-31T19:39:32.954Z,16.13
2022-10-31T19:41:59.729Z,17.30
2022-10-31T19:44:26.494Z,18.92
2022-10-31T19:46:54.152Z,17.92
2022-10-31T19:49:21.374Z,18.05
2022-10-31T19:51:48.098Z,17.40
2022-10-31T19:54:15.009Z,18.30
2022-10-31T19:56:43.161Z,18.33
2022-10-31T19:59:09.986Z,18.05
2022-10-31T20:01:36.850Z,17.58
2022-10-31T20:04:03.930Z,18.98
2022-10-31T20:06:32.908Z,16.73
2022-10-31T20:09:01.684Z,17.23
2022-10-31T20:11:28.954Z,18.65
2022-10-31T20:14:00.534Z,18.63
2022-10-31T20:16:28.171Z,18.27
2022-10-31T20:18:55.754Z,19.02
2022-10-31T20:21:26.432Z,19.70
2022-10-31T20:23:55.233Z,19.05
2022-10-31T20:26:22.059Z,19.90
2022-10-31T20:28:49.209Z,20.90
2022-10-31T20:31:20.256Z,17.80
2022-10-31T20:33:47.439Z,18.40
2022-10-31T20:36:15.204Z,20.98
2022-10-31T20:38:42.614Z,20.30
2022-10-31T20:41:11.625Z,20.38
2022-10-31T20:43:39.033Z,20.23
2022-10-31T20:46:07.691Z,19.23
2022-10-31T20:48:36.024Z,19.83
2022-10-31T20:51:10.071Z,19.92
2022-10-31T20:53:37.452Z,19.00
2022-10-31T20:56:08.123Z,19.10
2022-10-31T20:58:35.862Z,18.20
2022-10-31T21:01:03.553Z,18.88
2022-10-31T21:03:30.721Z,18.85
2022-10-31T21:06:01.185Z,18.45
2022-10-31T21:08:30.267Z,16.80
2022-10-31T21:10:57.282Z,17.10
2022-10-31T21:13:24.361Z,15.90
2022-10-31T21:16:00.156Z,17.42
2022-10-31T21:18:27.331Z,14.70
2022-10-31T21:20:54.508Z,16.27
2022-10-31T21:23:23.090Z,16.77
2022-10-31T21:25:49.955Z,14.52
2022-10-31T21:28:16.889Z,14.95
2022-10-31T21:30:45.551Z,13.75
2022-10-31T21:33:13.032Z,12.45
2022-10-31T21:35:40.062Z,12.85
2022-10-31T21:38:07.041Z,11.38
2022-10-31T21:40:37.381Z,11.45
2022-10-31T21:43:04.702Z,11.07
2022-10-31T21:45:31.897Z,12.20
2022-10-31T21:47:59.941Z,11.38
2022-10-31T21:50:30.494Z,12.00
2022-10-31T21:52:57.369Z,10.38
2022-10-31T21:55:24.397Z,11.65
2022-10-31T21:57:52.961Z,10.80
2022-10-31T22:00:20.607Z,10.20
2022-10-31T22:02:47.403Z,9.98
2022-10-31T22:05:14.234Z,10.18
2022-10-31T22:07:40.961Z,10.43
2022-10-31T22:10:08.624Z,10.48
2022-10-31T22:12:35.483Z,9.80
2022-10-31T22:15:04.110Z,9.88
2022-10-31T22:17:31.027Z,9.80
2022-10-31T22:19:57.825Z,9.07
2022-10-31T22:22:24.596Z,10.38
2022-10-31T22:24:51.360Z,10.07
2022-10-31T22:27:18.403Z,9.40
2022-10-31T22:29:45.242Z,9.25
2022-10-31T22:32:13.396Z,9.32
2022-10-31T22:34:40.117Z,9.07
2022-10-31T22:37:06.851Z,9.00
2022-10-31T22:39:33.704Z,9.40
2022-10-31T22:42:00.472Z,9.48
2022-10-31T22:44:27.207Z,8.50
2022-10-31T22:46:54.006Z,7.65
2022-10-31T22:49:22.522Z,8.18
2022-10-31T22:51:52.177Z,8.32
2022-10-31T22:54:19.410Z,8.35
2022-10-31T22:56:46.706Z,9.70
2022-10-31T22:59:15.473Z,8.10
2022-10-31T23:01:44.971Z,8.55
2022-10-31T23:06:45.911Z,7.88
2022-10-31T23:09:15.149Z,7.03
2022-10-31T23:11:42.579Z,7.18
2022-10-31T23:14:16.143Z,7.15
2022-10-31T23:16:45.613Z,8.00
2022-10-31T23:21:57.777Z,6.82
2022-10-31T23:24:29.121Z,7.07
2022-10-31T23:27:09.377Z,6.82
2022-10-31T23:29:43.698Z,8.25
2022-10-31T23:32:14.207Z,6.30
2022-10-31T23:34:41.201Z,7.30
2022-10-31T23:39:41.564Z,7.82
2022-10-31T23:42:09.382Z,6.47
2022-10-31T23:44:36.255Z,6.82
2022-10-31T23:47:03.384Z,7.22
2022-10-31T23:49:30.218Z,6.93
2022-10-31T23:51:57.936Z,7.82
2022-10-31T23:54:26.068Z,9.98
2022-10-31T23:56:54.623Z,7.57
2022-10-31T23:59:23.056Z,7.53
